createdAt,value
2022-07-30T00:01:55.086Z,19.20
2022-07-30T00:04:22.056Z,19.30
2022-07-30T00:06:48.726Z,19.10
2022-07-30T00:09:15.442Z,19.30
2022-07-30T00:11:42.220Z,19.20
2022-07-30T00:14:08.934Z,19.10
2022-07-30T00:16:35.695Z,19.10
2022-07-30T00:19:02.797Z,19.10
2022-07-30T00:21:35.673Z,19.20
2022-07-30T00:24:03.638Z,19.20
2022-07-30T00:26:30.343Z,19.20
2022-07-30T00:28:56.995Z,19.10
2022-07-30T00:31:23.714Z,19.10
2022-07-30T00:33:50.933Z,19.00
2022-07-30T00:36:17.654Z,18.90
2022-07-30T00:38:44.434Z,19.00
2022-07-30T00:41:11.230Z,19.00
2022-07-30T00:43:37.982Z,18.90
2022-07-30T00:46:04.779Z,18.90
2022-07-30T00:48:31.587Z,18.80
2022-07-30T00:50:58.421Z,18.80
2022-07-30T00:53:25.756Z,18.70
2022-07-30T00:55:52.531Z,18.70
2022-07-30T00:58:19.425Z,18.80
2022-07-30T01:00:46.148Z,18.70
2022-07-30T01:03:12.918Z,18.70
2022-07-30T01:05:39.565Z,18.70
2022-07-30T01:08:06.318Z,18.60
2022-07-30T01:10:32.973Z,18.80
2022-07-30T01:13:01.917Z,18.90
2022-07-30T01:15:28.902Z,18.90
2022-07-30T01:17:57.850Z,18.90
2022-07-30T01:20:26.708Z,19.00
2022-07-30T01:22:59.513Z,18.90
2022-07-30T01:25:32.229Z,18.90
2022-07-30T01:28:07.406Z,18.90
2022-07-30T01:30:38.510Z,18.90
2022-07-30T01:33:06.419Z,19.00
2022-07-30T01:35:34.446Z,19.00
2022-07-30T01:38:02.013Z,18.70
2022-07-30T01:40:29.486Z,18.90
2022-07-30T01:42:58.339Z,19.00
2022-07-30T01:45:25.586Z,19.00
2022-07-30T01:47:53.277Z,18.90
2022-07-30T01:50:20.353Z,18.90
2022-07-30T01:52:48.966Z,19.00
2022-07-30T01:55:17.625Z,18.90
2022-07-30T01:57:46.914Z,19.00
2022-07-30T02:00:14.227Z,18.90
2022-07-30T02:02:41.403Z,18.90
2022-07-30T02:05:09.101Z,18.90
2022-07-30T02:07:58.795Z,18.80
2022-07-30T02:10:35.059Z,18.80
2022-07-30T02:13:03.277Z,18.80
2022-07-30T02:15:35.023Z,18.70
2022-07-30T02:18:16.799Z,18.80
2022-07-30T02:20:49.475Z,18.70
2022-07-30T02:23:17.566Z,18.80
2022-07-30T02:25:47.076Z,18.90
2022-07-30T02:28:15.284Z,19.00
2022-07-30T02:30:46.913Z,19.30
2022-07-30T02:33:14.199Z,19.30
2022-07-30T02:35:41.119Z,19.30
2022-07-30T02:38:09.170Z,19.20
2022-07-30T02:40:36.041Z,19.00
2022-07-30T02:43:02.763Z,18.90
2022-07-30T02:45:30.796Z,18.80
2022-07-30T02:47:58.787Z,18.70
2022-07-30T02:50:27.072Z,18.60
2022-07-30T02:52:55.150Z,18.60
2022-07-30T02:55:22.864Z,18.60
2022-07-30T02:57:50.789Z,18.50
2022-07-30T03:00:17.600Z,18.60
2022-07-30T03:02:44.621Z,18.60
2022-07-30T03:05:12.003Z,18.60
2022-07-30T03:07:39.352Z,18.60
2022-07-30T03:10:06.731Z,18.60
2022-07-30T03:12:34.615Z,18.50
2022-07-30T03:15:01.471Z,18.50
2022-07-30T03:17:31.469Z,18.50
2022-07-30T03:20:00.673Z,18.50
2022-07-30T03:22:31.321Z,18.50
2022-07-30T03:24:59.960Z,18.50
2022-07-30T03:27:27.217Z,18.40
2022-07-30T03:29:54.473Z,18.30
2022-07-30T03:32:26.290Z,18.40
2022-07-30T03:34:54.204Z,18.40
2022-07-30T03:37:21.466Z,18.50
2022-07-30T03:39:48.557Z,18.50
2022-07-30T03:42:15.979Z,18.40
2022-07-30T03:44:45.701Z,18.40
2022-07-30T03:47:13.792Z,18.40
2022-07-30T03:49:40.685Z,18.40
2022-07-30T03:52:07.650Z,18.50
2022-07-30T03:54:35.085Z,18.60
2022-07-30T03:57:02.985Z,18.60
2022-07-30T03:59:30.029Z,18.70
2022-07-30T04:02:06.890Z,18.70
2022-07-30T04:04:34.428Z,18.60
2022-07-30T04:07:01.621Z,18.70
2022-07-30T04:09:28.701Z,18.80
2022-07-30T04:11:55.732Z,19.00
2022-07-30T04:14:22.484Z,18.90
2022-07-30T04:16:56.855Z,19.20
2022-07-30T04:19:26.730Z,19.50
2022-07-30T04:21:54.082Z,19.80
2022-07-30T04:24:21.282Z,20.00
2022-07-30T04:26:48.102Z,20.10
2022-07-30T04:29:18.276Z,20.30
2022-07-30T04:31:47.085Z,20.20
2022-07-30T04:34:15.183Z,20.00
2022-07-30T04:36:42.479Z,20.10
2022-07-30T04:39:10.041Z,20.40
2022-07-30T04:41:48.618Z,20.60
2022-07-30T04:44:19.919Z,20.70
2022-07-30T04:46:47.099Z,20.80
2022-07-30T04:49:16.017Z,21.00
2022-07-30T04:51:43.492Z,20.90
2022-07-30T04:54:15.737Z,20.60
2022-07-30T04:57:00.956Z,20.50
2022-07-30T04:59:27.949Z,20.30
2022-07-30T05:01:56.863Z,20.10
2022-07-30T05:04:24.064Z,20.10
2022-07-30T05:06:51.249Z,20.20
2022-07-30T05:09:18.070Z,20.00
2022-07-30T05:11:54.723Z,19.90
2022-07-30T05:14:22.282Z,20.00
2022-07-30T05:16:49.737Z,20.00
2022-07-30T05:19:17.148Z,20.20
2022-07-30T05:21:43.848Z,19.90
2022-07-30T05:24:10.680Z,19.90
2022-07-30T05:26:37.426Z,20.00
2022-07-30T05:29:06.989Z,20.00
2022-07-30T05:31:34.111Z,19.90
2022-07-30T05:34:03.571Z,19.80
2022-07-30T05:36:30.995Z,19.80
2022-07-30T05:38:57.750Z,19.80
2022-07-30T05:41:32.403Z,19.80
2022-07-30T05:44:00.556Z,19.90
2022-07-30T05:46:27.678Z,19.90
2022-07-30T05:48:54.559Z,20.00
2022-07-30T05:51:22.258Z,20.00
2022-07-30T05:53:49.119Z,20.00
2022-07-30T05:56:15.783Z,20.10
2022-07-30T05:58:42.521Z,20.40
2022-07-30T06:01:09.244Z,20.50
2022-07-30T06:03:36.135Z,20.60
2022-07-30T06:06:03.635Z,20.60
2022-07-30T06:08:30.537Z,20.70
2022-07-30T06:10:57.281Z,20.80
2022-07-30T06:13:24.014Z,20.90
2022-07-30T06:15:50.809Z,20.90
2022-07-30T06:18:20.169Z,20.80
2022-07-30T06:20:52.168Z,20.90
2022-07-30T06:23:19.275Z,20.50
2022-07-30T06:25:46.977Z,20.60
2022-07-30T06:28:36.341Z,20.70
2022-07-30T06:31:01.127Z,20.80
2022-07-30T06:33:27.931Z,21.10
2022-07-30T06:35:54.672Z,21.00
2022-07-30T06:38:21.373Z,20.90
2022-07-30T06:40:48.074Z,20.70
2022-07-30T06:43:14.809Z,20.60
2022-07-30T06:45:41.710Z,20.50
2022-07-30T06:48:08.515Z,20.70
2022-07-30T06:50:35.738Z,20.90
2022-07-30T06:53:02.597Z,21.00
2022-07-30T06:55:29.383Z,20.80
2022-07-30T06:57:56.054Z,20.70
2022-07-30T07:00:22.742Z,20.80
2022-07-30T07:02:49.437Z,20.60
2022-07-30T07:05:16.183Z,20.70
2022-07-30T07:07:56.280Z,20.90
2022-07-30T07:10:25.340Z,20.50
2022-07-30T07:12:52.057Z,20.20
2022-07-30T07:15:18.858Z,20.40
2022-07-30T07:17:49.274Z,20.30
2022-07-30T07:20:16.038Z,21.10
2022-07-30T07:22:42.937Z,21.50
2022-07-30T07:25:12.057Z,22.60
2022-07-30T07:27:38.834Z,22.40
2022-07-30T07:30:06.427Z,22.70
2022-07-30T07:32:35.089Z,23.00
2022-07-30T07:35:01.916Z,22.40
2022-07-30T07:37:28.935Z,22.30
2022-07-30T07:39:55.745Z,22.70
2022-07-30T07:42:22.619Z,22.20
2022-07-30T07:44:49.404Z,22.10
2022-07-30T07:47:16.190Z,22.10
2022-07-30T07:49:42.892Z,22.40
2022-07-30T07:52:09.641Z,22.20
2022-07-30T07:54:36.334Z,22.10
2022-07-30T07:57:07.946Z,22.40
2022-07-30T07:59:40.718Z,22.80
2022-07-30T08:02:08.388Z,22.20
2022-07-30T08:04:35.627Z,21.70
2022-07-30T08:07:03.155Z,21.70
2022-07-30T08:09:43.681Z,21.90
2022-07-30T08:12:12.386Z,21.30
2022-07-30T08:14:39.211Z,21.20
2022-07-30T08:17:06.528Z,21.00
2022-07-30T08:19:33.636Z,21.50
2022-07-30T08:22:00.603Z,21.40
2022-07-30T08:24:27.351Z,21.30
2022-07-30T08:26:54.112Z,21.20
2022-07-30T08:29:20.937Z,21.30
2022-07-30T08:31:47.690Z,21.40
2022-07-30T08:34:14.560Z,21.50
2022-07-30T08:36:42.293Z,21.80
2022-07-30T08:39:09.049Z,21.90
2022-07-30T08:41:39.571Z,22.00
2022-07-30T08:44:12.893Z,21.80
2022-07-30T08:46:47.274Z,21.90
2022-07-30T08:49:14.738Z,21.60
2022-07-30T08:51:41.717Z,21.60
2022-07-30T08:54:08.862Z,21.80
2022-07-30T08:56:35.585Z,21.90
2022-07-30T08:59:02.915Z,21.60
2022-07-30T09:01:29.680Z,21.60
2022-07-30T09:03:56.392Z,21.60
2022-07-30T09:06:23.431Z,21.60
2022-07-30T09:08:50.164Z,21.20
2022-07-30T09:11:16.886Z,21.20
2022-07-30T09:13:44.711Z,21.30
2022-07-30T09:16:24.751Z,21.20
2022-07-30T09:18:52.624Z,21.20
2022-07-30T09:21:24.497Z,21.40
2022-07-30T09:23:58.138Z,21.70
2022-07-30T09:26:24.942Z,21.60
2022-07-30T09:28:51.888Z,21.30
2022-07-30T09:31:19.422Z,21.20
2022-07-30T09:33:47.490Z,21.70
2022-07-30T09:36:17.866Z,21.90
2022-07-30T09:38:46.246Z,22.00
2022-07-30T09:41:29.393Z,21.10
2022-07-30T09:44:02.955Z,21.20
2022-07-30T09:46:45.066Z,20.90
2022-07-30T09:49:15.864Z,21.10
2022-07-30T09:51:54.757Z,21.00
2022-07-30T09:54:25.399Z,21.00
2022-07-30T09:57:22.639Z,20.80
2022-07-30T09:59:50.280Z,21.00
2022-07-30T10:02:16.987Z,20.90
2022-07-30T10:04:43.777Z,20.70
2022-07-30T10:07:25.243Z,20.60
2022-07-30T10:09:53.383Z,20.40
2022-07-30T10:12:20.497Z,20.50
2022-07-30T10:14:53.226Z,20.30
2022-07-30T10:17:20.676Z,19.90
2022-07-30T10:19:49.095Z,19.70
2022-07-30T10:22:16.995Z,19.90
2022-07-30T10:24:44.662Z,19.70
2022-07-30T10:27:12.139Z,19.30
2022-07-30T10:29:42.845Z,19.10
2022-07-30T10:32:10.610Z,19.50
2022-07-30T10:34:38.164Z,19.30
2022-07-30T10:37:16.646Z,19.40
2022-07-30T10:40:03.772Z,19.30
2022-07-30T10:42:39.541Z,19.20
2022-07-30T10:55:12.898Z,19.10
